Penfield, Pennsylvania
Current Conditions -  °F | °C
As of 2:54 PM on Thursday 27 Nov 2014 (Local Time) from KFIG Reporting Station
Overcast Overcast  
Wind Chill: 28°   Ceiling: 6000
Heat Index: 33°   Visibility: 10mi
Dew Point: 26°   Wind: 6mph
Humidity: 75%   Direction: 320°NW
Pressure: 30"   Gusts: NA
Location:  41.21°N, 78.58°W
Report Text: KFIG 271954Z AUTO 32005KT 10SM OVC060 01/M03 A3000 RMK AO2 SLP176 T00061033
Loading
Personal Weather Stations






























Interactive Weather Map New forecast layout! Learn more

10-Day Weather Forecast

Advertisements
Track Severe Weather on mobile